Time,TemperatureF,DewpointF,PressureIn,WindDirection,WindDirectionDegrees,WindSpeedMPH,WindSpeedGustMPH,Humidity,HourlyPrecipIn,Conditions,Clouds,dailyrainin,SoftwareType,DateUTC
2013-05-06 00:02:00,50.0,49.0,28.92,North,1,6.0,-999.0,96,27.77,,,-99.99,,2013-05-06 05:02:00,
2013-05-06 00:12:00,50.0,49.0,28.92,North,1,6.0,-999.0,96,27.77,,,-99.99,,2013-05-06 05:12:00,
2013-05-06 00:22:00,50.0,49.0,28.91,NNW,342,5.0,-999.0,96,27.77,,,-99.99,,2013-05-06 05:22:00,
2013-05-06 00:32:00,50.0,49.0,28.91,NNW,342,5.0,-999.0,96,27.77,,,-99.99,,2013-05-06 05:32:00,
2013-05-06 00:42:00,50.0,49.0,28.91,NNW,342,5.0,-999.0,96,27.77,,,-99.99,,2013-05-06 05:42:00,
2013-05-06 00:52:00,50.0,49.0,28.91,NE,34,0.0,-999.0,97,27.77,,,-99.99,,2013-05-06 05:52:00,
2013-05-06 01:02:00,50.0,49.0,28.91,NE,34,0.0,-999.0,97,27.77,,,-99.99,,2013-05-06 06:02:00,
2013-05-06 01:12:00,49.0,48.0,28.90,WNW,295,0.0,-999.0,97,27.77,,,-99.99,,2013-05-06 06:12:00,
2013-05-06 01:21:00,49.0,48.0,28.90,WNW,295,0.0,-999.0,97,27.77,,,-99.99,,2013-05-06 06:21:00,
2013-05-06 01:32:00,49.0,48.0,28.90,WNW,295,0.0,-999.0,97,27.77,,,-99.99,,2013-05-06 06:32:00,
2013-05-06 01:42:00,49.0,48.0,28.90,WNW,295,0.0,-999.0,97,27.77,,,-99.99,,2013-05-06 06:42:00,
2013-05-06 01:52:00,49.0,48.0,28.90,WNW,297,0.0,-999.0,98,27.77,,,-99.99,,2013-05-06 06:52:00,
2013-05-06 02:01:00,49.0,48.0,28.90,WNW,297,0.0,-999.0,98,27.77,,,-99.99,,2013-05-06 07:01:00,
2013-05-06 02:11:00,49.0,48.0,28.90,WNW,297,0.0,-999.0,98,27.77,,,-99.99,,2013-05-06 07:11:00,
2013-05-06 02:22:00,49.0,48.0,28.89,NNW,342,0.0,-999.0,98,27.77,,,-99.99,,2013-05-06 07:22:00,
2013-05-06 02:32:00,49.0,48.0,28.89,NNW,342,0.0,-999.0,98,27.77,,,-99.99,,2013-05-06 07:32:00,
2013-05-06 02:42:00,49.0,48.0,28.89,NNW,342,0.0,-999.0,98,27.77,,,-99.99,,2013-05-06 07:42:00,
2013-05-06 02:52:00,49.0,48.0,28.89,NW,318,0.0,-999.0,98,27.77,,,-99.99,,2013-05-06 07:52:00,
2013-05-06 03:01:00,49.0,48.0,28.89,NW,318,0.0,-999.0,98,27.77,,,-99.99,,2013-05-06 08:01:00,
2013-05-06 03:12:00,49.0,48.0,28.89,NW,318,0.0,-999.0,98,27.77,,,-99.99,,2013-05-06 08:12:00,
2013-05-06 03:22:00,49.0,48.0,28.88,NNE,32,0.0,-999.0,98,27.77,,,-99.99,,2013-05-06 08:22:00,
2013-05-06 03:32:00,49.0,48.0,28.88,NNE,32,0.0,-999.0,98,27.77,,,-99.99,,2013-05-06 08:32:00,
2013-05-06 03:42:00,49.0,48.0,28.88,NNE,32,0.0,-999.0,98,27.77,,,-99.99,,2013-05-06 08:42:00,
2013-05-06 03:52:00,49.0,48.0,28.88,North,359,0.0,-999.0,98,27.77,,,-99.99,,2013-05-06 08:52:00,
2013-05-06 04:01:00,49.0,48.0,28.88,North,359,0.0,-999.0,98,27.77,,,-99.99,,2013-05-06 09:01:00,
2013-05-06 04:11:00,49.0,48.0,28.88,North,359,0.0,-999.0,98,27.77,,,-99.99,,2013-05-06 09:11:00,
2013-05-06 04:22:00,48.0,47.0,28.89,North,359,0.0,-999.0,98,27.77,,,-99.99,,2013-05-06 09:22:00,
2013-05-06 04:33:00,48.0,47.0,28.89,North,359,0.0,-999.0,98,27.77,,,-99.99,,2013-05-06 09:33:00,
2013-05-06 04:43:00,48.0,47.0,28.89,North,359,0.0,-999.0,98,27.77,,,-99.99,,2013-05-06 09:43:00,
2013-05-06 04:53:00,48.0,47.0,28.89,North,359,0.0,-999.0,98,27.77,,,-99.99,,2013-05-06 09:53:00,
2013-05-06 05:02:00,48.0,47.0,28.89,North,359,0.0,-999.0,98,27.77,,,-99.99,,2013-05-06 10:02:00,
2013-05-06 05:12:00,48.0,47.0,28.89,North,359,0.0,-999.0,98,27.77,,,-99.99,,2013-05-06 10:12:00,
2013-05-06 05:22:00,48.0,47.0,28.89,North,359,0.0,-999.0,98,27.77,,,-99.99,,2013-05-06 10:22:00,
2013-05-06 05:33:00,48.0,47.0,28.89,North,359,0.0,-999.0,98,27.77,,,-99.99,,2013-05-06 10:33:00,
2013-05-06 05:42:00,48.0,47.0,28.89,North,359,0.0,-999.0,98,27.77,,,-99.99,,2013-05-06 10:42:00,
2013-05-06 05:52:00,47.0,46.0,28.90,NW,321,5.0,-999.0,98,27.77,,,-99.99,,2013-05-06 10:52:00,
2013-05-06 06:02:00,47.0,46.0,28.90,NW,321,5.0,-999.0,98,27.77,,,-99.99,,2013-05-06 11:02:00,
2013-05-06 06:12:00,47.0,46.0,28.90,NW,321,5.0,-999.0,98,27.77,,,-99.99,,2013-05-06 11:12:00,
2013-05-06 06:22:00,46.0,46.0,28.90,NW,305,0.0,-999.0,99,27.77,,,-99.99,,2013-05-06 11:22:00,
2013-05-06 06:32:00,46.0,46.0,28.90,NW,305,0.0,-999.0,99,27.77,,,-99.99,,2013-05-06 11:32:00,
2013-05-06 06:42:00,46.0,46.0,28.90,NW,305,0.0,-999.0,99,27.77,,,-99.99,,2013-05-06 11:42:00,
2013-05-06 06:52:00,45.0,45.0,28.90,WNW,284,0.0,-999.0,99,27.77,,,-99.99,,2013-05-06 11:52:00,
2013-05-06 07:01:00,45.0,45.0,28.90,WNW,284,0.0,-999.0,99,27.77,,,-99.99,,2013-05-06 12:01:00,
2013-05-06 07:12:00,45.0,45.0,28.90,WNW,284,0.0,-999.0,99,27.77,,,-99.99,,2013-05-06 12:12:00,
2013-05-06 07:21:00,45.0,45.0,28.91,NW,326,4.0,-999.0,100,27.77,,,-99.99,,2013-05-06 12:21:00,
2013-05-06 07:32:00,45.0,45.0,28.91,NW,326,4.0,-999.0,100,27.77,,,-99.99,,2013-05-06 12:32:00,
2013-05-06 07:42:00,45.0,45.0,28.91,NW,326,4.0,-999.0,100,27.77,,,-99.99,,2013-05-06 12:42:00,
2013-05-06 07:52:00,45.0,45.0,28.92,NW,323,0.0,-999.0,100,27.77,,,-99.99,,2013-05-06 12:52:00,
2013-05-06 08:01:00,45.0,45.0,28.92,NW,323,0.0,-999.0,100,27.77,,,-99.99,,2013-05-06 13:01:00,
2013-05-06 08:11:00,45.0,45.0,28.92,NW,323,0.0,-999.0,100,27.77,,,-99.99,,2013-05-06 13:11:00,
2013-05-06 08:21:00,46.0,46.0,28.92,NNW,333,6.0,-999.0,100,27.77,,,-99.99,,2013-05-06 13:21:00,
2013-05-06 08:32:00,46.0,46.0,28.92,NNW,333,6.0,-999.0,100,27.77,,,-99.99,,2013-05-06 13:32:00,
2013-05-06 08:42:00,46.0,46.0,28.92,NNW,333,6.0,-999.0,100,27.77,,,-99.99,,2013-05-06 13:42:00,
2013-05-06 08:52:00,46.0,46.0,28.92,NNW,336,7.0,-999.0,99,27.77,,,-99.99,,2013-05-06 13:52:00,
2013-05-06 09:01:00,46.0,46.0,28.92,NNW,336,7.0,-999.0,99,27.77,,,-99.99,,2013-05-06 14:01:00,
2013-05-06 09:11:00,47.0,47.0,28.93,NW,323,6.0,-999.0,99,27.77,,,-99.99,,2013-05-06 14:11:00,
2013-05-06 09:21:00,47.0,47.0,28.93,NW,323,6.0,-999.0,99,27.77,,,-99.99,,2013-05-06 14:21:00,
2013-05-06 09:32:00,47.0,47.0,28.93,NW,323,6.0,-999.0,99,27.77,,,-99.99,,2013-05-06 14:32:00,
2013-05-06 09:42:00,47.0,47.0,28.94,North,357,6.0,-999.0,99,27.77,,,-99.99,,2013-05-06 14:42:00,
2013-05-06 09:52:00,47.0,47.0,28.94,North,357,6.0,-999.0,99,27.77,,,-99.99,,2013-05-06 14:52:00,
2013-05-06 10:01:00,47.0,47.0,28.94,North,357,6.0,-999.0,99,27.77,,,-99.99,,2013-05-06 15:01:00,
2013-05-06 10:11:00,47.0,47.0,28.94,North,357,6.0,-999.0,99,27.77,,,-99.99,,2013-05-06 15:11:00,
2013-05-06 10:21:00,48.0,48.0,28.93,NNE,32,5.0,-999.0,99,27.77,,,-99.99,,2013-05-06 15:21:00,
2013-05-06 10:33:00,48.0,48.0,28.93,NNE,32,5.0,-999.0,99,27.77,,,-99.99,,2013-05-06 15:33:00,
2013-05-06 10:43:00,48.0,48.0,28.93,NNE,32,5.0,-999.0,99,27.77,,,-99.99,,2013-05-06 15:43:00,
2013-05-06 10:53:00,48.0,47.0,28.93,North,8,0.0,-999.0,98,27.77,,,-99.99,,2013-05-06 15:53:00,
2013-05-06 11:03:00,48.0,47.0,28.93,North,8,0.0,-999.0,98,27.77,,,-99.99,,2013-05-06 16:03:00,
2013-05-06 11:13:00,48.0,47.0,28.93,North,8,0.0,-999.0,98,27.77,,,-99.99,,2013-05-06 16:13:00,
2013-05-06 11:23:00,49.0,48.0,28.93,WNW,300,7.0,-999.0,98,27.77,,,-99.99,,2013-05-06 16:23:00,
2013-05-06 11:33:00,49.0,48.0,28.93,WNW,300,7.0,-999.0,98,27.77,,,-99.99,,2013-05-06 16:33:00,
2013-05-06 11:42:00,49.0,48.0,28.93,WNW,300,7.0,-999.0,98,27.77,,,-99.99,,2013-05-06 16:42:00,
2013-05-06 11:52:00,50.0,49.0,28.93,NW,316,8.0,-999.0,97,27.77,,,-99.99,,2013-05-06 16:52:00,
2013-05-06 12:02:00,50.0,49.0,28.93,NW,316,8.0,-999.0,97,27.77,,,-99.99,,2013-05-06 17:02:00,
2013-05-06 12:12:00,50.0,49.0,28.93,NW,316,8.0,-999.0,97,27.77,,,-99.99,,2013-05-06 17:12:00,
2013-05-06 12:23:00,52.0,51.0,28.92,NNE,25,0.0,-999.0,95,27.77,,,-99.99,,2013-05-06 17:23:00,
2013-05-06 12:32:00,52.0,51.0,28.92,NNE,25,0.0,-999.0,95,27.77,,,-99.99,,2013-05-06 17:32:00,
2013-05-06 12:42:00,52.0,51.0,28.92,NNE,25,0.0,-999.0,95,27.77,,,-99.99,,2013-05-06 17:42:00,
2013-05-06 12:52:00,53.0,52.0,28.92,NW,319,5.0,-999.0,95,27.77,,,-99.99,,2013-05-06 17:52:00,
2013-05-06 13:01:00,53.0,52.0,28.92,NW,319,5.0,-999.0,95,27.77,,,-99.99,,2013-05-06 18:01:00,
2013-05-06 13:12:00,53.0,52.0,28.92,NW,319,5.0,-999.0,95,27.77,,,-99.99,,2013-05-06 18:12:00,
2013-05-06 13:21:00,55.0,53.0,28.91,NW,323,5.0,-999.0,92,27.77,,,-99.99,,2013-05-06 18:21:00,
2013-05-06 13:32:00,55.0,53.0,28.91,NW,323,5.0,-999.0,92,27.77,,,-99.99,,2013-05-06 18:32:00,
2013-05-06 13:43:00,55.0,53.0,28.91,NW,323,5.0,-999.0,92,27.77,,,-99.99,,2013-05-06 18:43:00,
2013-05-06 13:52:00,56.0,54.0,28.91,NE,39,5.0,-999.0,92,27.77,,,-99.99,,2013-05-06 18:52:00,
2013-05-06 14:01:00,56.0,54.0,28.91,NE,39,5.0,-999.0,92,27.77,,,-99.99,,2013-05-06 19:01:00,
2013-05-06 14:11:00,56.0,54.0,28.91,NE,39,5.0,-999.0,92,27.77,,,-99.99,,2013-05-06 19:11:00,
2013-05-06 14:22:00,59.0,56.0,28.89,North,357,0.0,-999.0,90,27.77,,,-99.99,,2013-05-06 19:22:00,
2013-05-06 14:32:00,59.0,56.0,28.89,North,357,0.0,-999.0,90,27.77,,,-99.99,,2013-05-06 19:32:00,
2013-05-06 14:42:00,59.0,56.0,28.89,North,357,0.0,-999.0,90,27.77,,,-99.99,,2013-05-06 19:42:00,
2013-05-06 14:52:00,60.0,56.0,28.88,NE,39,0.0,-999.0,88,27.77,,,-99.99,,2013-05-06 19:52:00,
2013-05-06 15:01:00,60.0,56.0,28.88,NE,39,0.0,-999.0,88,27.77,,,-99.99,,2013-05-06 20:01:00,
2013-05-06 15:11:00,62.0,56.0,28.87,NNE,24,4.0,-999.0,81,27.77,,,-99.99,,2013-05-06 20:11:00,
2013-05-06 15:21:00,62.0,56.0,28.87,NNE,24,4.0,-999.0,81,27.77,,,-99.99,,2013-05-06 20:21:00,
2013-05-06 15:32:00,62.0,56.0,28.87,NNE,24,4.0,-999.0,81,27.77,,,-99.99,,2013-05-06 20:32:00,
2013-05-06 15:42:00,62.0,56.0,28.87,NNE,24,4.0,-999.0,81,27.77,,,-99.99,,2013-05-06 20:42:00,
2013-05-06 15:52:00,64.0,58.0,28.86,NE,49,0.0,-999.0,80,27.77,,,-99.99,,2013-05-06 20:52:00,
2013-05-06 16:01:00,64.0,58.0,28.86,NE,49,0.0,-999.0,80,27.77,,,-99.99,,2013-05-06 21:01:00,
2013-05-06 16:11:00,64.0,58.0,28.86,NE,49,0.0,-999.0,80,27.77,,,-99.99,,2013-05-06 21:11:00,
2013-05-06 16:21:00,64.0,57.0,28.85,NW,326,0.0,-999.0,79,27.77,,,-99.99,,2013-05-06 21:21:00,
2013-05-06 16:33:00,64.0,57.0,28.85,NW,326,0.0,-999.0,79,27.77,,,-99.99,,2013-05-06 21:33:00,
2013-05-06 16:43:00,64.0,57.0,28.85,NW,326,0.0,-999.0,79,27.77,,,-99.99,,2013-05-06 21:43:00,
2013-05-06 16:53:00,64.0,57.0,28.84,West,260,0.0,-999.0,78,27.77,,,-99.99,,2013-05-06 21:53:00,
2013-05-06 17:03:00,64.0,57.0,28.84,West,260,0.0,-999.0,78,27.77,,,-99.99,,2013-05-06 22:03:00,
2013-05-06 17:12:00,64.0,57.0,28.84,West,260,0.0,-999.0,78,27.77,,,-99.99,,2013-05-06 22:12:00,
2013-05-06 17:22:00,65.0,57.0,28.82,WSW,252,0.0,-999.0,76,27.77,,,-99.99,,2013-05-06 22:22:00,
2013-05-06 17:33:00,65.0,57.0,28.82,WSW,252,0.0,-999.0,76,27.77,,,-99.99,,2013-05-06 22:33:00,
2013-05-06 17:45:00,65.0,57.0,28.82,WSW,252,0.0,-999.0,76,27.77,,,-99.99,,2013-05-06 22:45:00,
2013-05-06 17:52:00,66.0,58.0,28.82,WSW,252,0.0,-999.0,76,27.77,,,-99.99,,2013-05-06 22:52:00,
2013-05-06 18:02:00,66.0,58.0,28.82,WSW,252,0.0,-999.0,76,27.77,,,-99.99,,2013-05-06 23:02:00,
2013-05-06 18:12:00,66.0,58.0,28.82,WSW,252,0.0,-999.0,76,27.77,,,-99.99,,2013-05-06 23:12:00,
2013-05-06 18:22:00,66.0,58.0,28.81,SSW,194,0.0,-999.0,75,27.77,,,-99.99,,2013-05-06 23:22:00,
2013-05-06 18:32:00,66.0,58.0,28.81,SSW,194,0.0,-999.0,75,27.77,,,-99.99,,2013-05-06 23:32:00,
2013-05-06 18:42:00,66.0,58.0,28.81,SSW,194,0.0,-999.0,75,27.77,,,-99.99,,2013-05-06 23:42:00,
2013-05-06 18:52:00,66.0,57.0,28.81,SSE,158,0.0,-999.0,74,27.77,,,-99.99,,2013-05-06 23:52:00,
2013-05-06 19:01:00,66.0,57.0,28.81,SSE,158,0.0,-999.0,74,27.77,,,-99.99,,2013-05-07 00:01:00,
2013-05-06 19:11:00,66.0,57.0,28.81,SSE,158,0.0,-999.0,74,27.77,,,-99.99,,2013-05-07 00:11:00,
2013-05-06 19:21:00,66.0,57.0,28.80,South,174,0.0,-999.0,74,27.77,,,-99.99,,2013-05-07 00:21:00,
2013-05-06 19:32:00,66.0,57.0,28.80,South,174,0.0,-999.0,74,27.77,,,-99.99,,2013-05-07 00:32:00,
2013-05-06 19:42:00,66.0,57.0,28.80,South,174,0.0,-999.0,74,27.77,,,-99.99,,2013-05-07 00:42:00,
2013-05-06 19:52:00,66.0,58.0,28.81,South,174,0.0,-999.0,75,27.77,,,-99.99,,2013-05-07 00:52:00,
2013-05-06 20:01:00,66.0,58.0,28.81,South,174,0.0,-999.0,75,27.77,,,-99.99,,2013-05-07 01:01:00,
2013-05-06 20:11:00,66.0,58.0,28.81,South,174,0.0,-999.0,75,27.77,,,-99.99,,2013-05-07 01:11:00,
2013-05-06 20:21:00,65.0,58.0,28.82,East,82,0.0,-999.0,79,27.77,,,-99.99,,2013-05-07 01:21:00,
2013-05-06 20:32:00,65.0,58.0,28.82,East,82,0.0,-999.0,79,27.77,,,-99.99,,2013-05-07 01:32:00,
2013-05-06 20:42:00,65.0,58.0,28.82,East,82,0.0,-999.0,79,27.77,,,-99.99,,2013-05-07 01:42:00,
2013-05-06 20:53:00,63.0,57.0,28.82,East,82,0.0,-999.0,82,27.77,,,-99.99,,2013-05-07 01:53:00,
2013-05-06 21:02:00,63.0,57.0,28.82,East,82,0.0,-999.0,82,27.77,,,-99.99,,2013-05-07 02:02:00,
2013-05-06 21:11:00,63.0,57.0,28.82,East,82,0.0,-999.0,82,27.77,,,-99.99,,2013-05-07 02:11:00,
2013-05-06 21:21:00,61.0,57.0,28.82,East,82,0.0,-999.0,88,27.77,,,-99.99,,2013-05-07 02:21:00,
2013-05-06 21:32:00,61.0,57.0,28.82,East,82,0.0,-999.0,88,27.77,,,-99.99,,2013-05-07 02:32:00,
2013-05-06 21:42:00,61.0,57.0,28.82,East,82,0.0,-999.0,88,27.77,,,-99.99,,2013-05-07 02:42:00,
2013-05-06 21:52:00,60.0,57.0,28.84,East,82,0.0,-999.0,90,27.77,,,-99.99,,2013-05-07 02:52:00,
2013-05-06 22:01:00,60.0,57.0,28.84,East,82,0.0,-999.0,90,27.77,,,-99.99,,2013-05-07 03:01:00,
2013-05-06 22:11:00,60.0,57.0,28.84,East,82,0.0,-999.0,90,27.77,,,-99.99,,2013-05-07 03:11:00,
2013-05-06 22:21:00,59.0,56.0,28.84,East,82,0.0,-999.0,91,27.77,,,-99.99,,2013-05-07 03:21:00,
2013-05-06 22:32:00,59.0,56.0,28.84,East,82,0.0,-999.0,91,27.77,,,-99.99,,2013-05-07 03:32:00,
2013-05-06 22:43:00,59.0,56.0,28.84,East,82,0.0,-999.0,91,27.77,,,-99.99,,2013-05-07 03:43:00,
2013-05-06 22:53:00,58.0,56.0,28.84,East,82,0.0,-999.0,92,27.77,,,-99.99,,2013-05-07 03:53:00,
2013-05-06 23:02:00,58.0,56.0,28.84,East,82,0.0,-999.0,92,27.77,,,-99.99,,2013-05-07 04:02:00,
2013-05-06 23:12:00,58.0,56.0,28.84,East,82,0.0,-999.0,92,27.77,,,-99.99,,2013-05-07 04:12:00,
2013-05-06 23:23:00,55.0,54.0,28.84,East,82,0.0,-999.0,95,27.77,,,-99.99,,2013-05-07 04:23:00,
2013-05-06 23:33:00,55.0,54.0,28.84,East,82,0.0,-999.0,95,27.77,,,-99.99,,2013-05-07 04:33:00,
2013-05-06 23:42:00,55.0,54.0,28.84,East,82,0.0,-999.0,95,27.77,,,-99.99,,2013-05-07 04:42:00,
2013-05-06 23:53:00,54.0,53.0,28.84,East,82,0.0,-999.0,95,27.77,,,-99.99,,2013-05-07 04:53:00,